sensor_id;sensor_type;location;lat;lon;timestamp;temperature;humidity
34768;DHT22;21755;43.608;1.236;2022-11-12T00:01:35;16.00;99.90
34768;DHT22;21755;43.608;1.236;2022-11-12T00:04:01;16.00;99.90
34768;DHT22;21755;43.608;1.236;2022-11-12T00:06:27;16.00;99.90
34768;DHT22;21755;43.608;1.236;2022-11-12T00:08:53;15.90;99.90
34768;DHT22;21755;43.608;1.236;2022-11-12T00:11:19;15.90;99.90
34768;DHT22;21755;43.608;1.236;2022-11-12T00:13:45;15.90;99.90
34768;DHT22;21755;43.608;1.236;2022-11-12T00:16:11;15.90;99.90
34768;DHT22;21755;43.608;1.236;2022-11-12T00:18:39;15.90;99.90
34768;DHT22;21755;43.608;1.236;2022-11-12T00:21:05;16.00;99.90
34768;DHT22;21755;43.608;1.236;2022-11-12T00:23:31;16.00;99.90
34768;DHT22;21755;43.608;1.236;2022-11-12T00:25:58;16.00;99.90
34768;DHT22;21755;43.608;1.236;2022-11-12T00:28:24;15.90;99.90
34768;DHT22;21755;43.608;1.236;2022-11-12T00:30:50;15.90;99.90
34768;DHT22;21755;43.608;1.236;2022-11-12T00:33:16;15.90;99.90
34768;DHT22;21755;43.608;1.236;2022-11-12T00:35:44;15.90;99.90
34768;DHT22;21755;43.608;1.236;2022-11-12T00:38:10;15.80;99.90
34768;DHT22;21755;43.608;1.236;2022-11-12T00:40:36;15.80;99.90
34768;DHT22;21755;43.608;1.236;2022-11-12T00:43:02;15.80;99.90
34768;DHT22;21755;43.608;1.236;2022-11-12T00:45:28;15.80;99.90
34768;DHT22;21755;43.608;1.236;2022-11-12T00:47:55;15.80;99.90
34768;DHT22;21755;43.608;1.236;2022-11-12T00:50:21;15.80;99.90
34768;DHT22;21755;43.608;1.236;2022-11-12T00:52:50;15.90;99.90
34768;DHT22;21755;43.608;1.236;2022-11-12T00:55:16;15.90;99.90
34768;DHT22;21755;43.608;1.236;2022-11-12T00:57:42;15.90;99.90
34768;DHT22;21755;43.608;1.236;2022-11-12T01:00:14;15.90;99.90
34768;DHT22;21755;43.608;1.236;2022-11-12T01:02:40;15.90;99.90
34768;DHT22;21755;43.608;1.236;2022-11-12T01:05:07;15.80;99.90
34768;DHT22;21755;43.608;1.236;2022-11-12T01:07:33;15.80;99.90
34768;DHT22;21755;43.608;1.236;2022-11-12T01:10:01;15.80;99.90
34768;DHT22;21755;43.608;1.236;2022-11-12T01:12:29;15.80;99.90
34768;DHT22;21755;43.608;1.236;2022-11-12T01:14:55;15.80;99.90
34768;DHT22;21755;43.608;1.236;2022-11-12T01:17:21;15.70;99.90
34768;DHT22;21755;43.608;1.236;2022-11-12T01:19:47;15.70;99.90
34768;DHT22;21755;43.608;1.236;2022-11-12T01:22:13;15.80;99.90
34768;DHT22;21755;43.608;1.236;2022-11-12T01:24:39;15.70;99.90
34768;DHT22;21755;43.608;1.236;2022-11-12T01:27:06;15.70;99.90
34768;DHT22;21755;43.608;1.236;2022-11-12T01:29:32;15.70;99.90
34768;DHT22;21755;43.608;1.236;2022-11-12T01:31:58;15.70;99.90
34768;DHT22;21755;43.608;1.236;2022-11-12T01:34:25;15.70;99.90
34768;DHT22;21755;43.608;1.236;2022-11-12T01:36:51;15.70;99.90
34768;DHT22;21755;43.608;1.236;2022-11-12T01:39:17;15.70;99.90
34768;DHT22;21755;43.608;1.236;2022-11-12T01:41:43;15.70;99.90
34768;DHT22;21755;43.608;1.236;2022-11-12T01:44:14;15.70;99.90
34768;DHT22;21755;43.608;1.236;2022-11-12T01:46:50;15.70;99.90
34768;DHT22;21755;43.608;1.236;2022-11-12T01:49:23;15.80;99.90
34768;DHT22;21755;43.608;1.236;2022-11-12T01:51:53;15.70;99.90
34768;DHT22;21755;43.608;1.236;2022-11-12T01:54:20;15.70;99.90
34768;DHT22;21755;43.608;1.236;2022-11-12T01:56:48;15.70;99.90
34768;DHT22;21755;43.608;1.236;2022-11-12T01:59:23;15.70;99.90
34768;DHT22;21755;43.608;1.236;2022-11-12T02:01:50;15.70;99.90
34768;DHT22;21755;43.608;1.236;2022-11-12T02:04:16;15.70;99.90
34768;DHT22;21755;43.608;1.236;2022-11-12T02:06:43;15.80;99.90
34768;DHT22;21755;43.608;1.236;2022-11-12T02:09:10;15.80;99.90
34768;DHT22;21755;43.608;1.236;2022-11-12T02:11:37;15.70;99.90
34768;DHT22;21755;43.608;1.236;2022-11-12T02:14:03;15.70;99.90
34768;DHT22;21755;43.608;1.236;2022-11-12T02:16:35;15.70;99.90
34768;DHT22;21755;43.608;1.236;2022-11-12T02:19:02;15.70;99.90
34768;DHT22;21755;43.608;1.236;2022-11-12T02:21:30;15.70;99.90
34768;DHT22;21755;43.608;1.236;2022-11-12T02:23:57;15.70;99.90
34768;DHT22;21755;43.608;1.236;2022-11-12T02:26:24;15.70;99.90
34768;DHT22;21755;43.608;1.236;2022-11-12T02:28:50;15.70;99.90
34768;DHT22;21755;43.608;1.236;2022-11-12T02:31:16;15.70;99.90
34768;DHT22;21755;43.608;1.236;2022-11-12T02:33:43;15.70;99.90
34768;DHT22;21755;43.608;1.236;2022-11-12T02:36:09;15.60;99.90
34768;DHT22;21755;43.608;1.236;2022-11-12T02:38:36;15.60;99.90
34768;DHT22;21755;43.608;1.236;2022-11-12T02:41:02;15.60;99.90
34768;DHT22;21755;43.608;1.236;2022-11-12T02:43:28;15.60;99.90
34768;DHT22;21755;43.608;1.236;2022-11-12T02:45:54;15.60;99.90
34768;DHT22;21755;43.608;1.236;2022-11-12T02:48:20;15.60;99.90
34768;DHT22;21755;43.608;1.236;2022-11-12T02:50:47;15.50;99.90
34768;DHT22;21755;43.608;1.236;2022-11-12T02:53:13;15.60;99.90
34768;DHT22;21755;43.608;1.236;2022-11-12T02:55:41;15.50;99.90
34768;DHT22;21755;43.608;1.236;2022-11-12T02:58:08;15.50;99.90
34768;DHT22;21755;43.608;1.236;2022-11-12T03:00:34;15.50;99.90
34768;DHT22;21755;43.608;1.236;2022-11-12T03:03:00;15.50;99.90
34768;DHT22;21755;43.608;1.236;2022-11-12T03:05:27;15.40;99.90
34768;DHT22;21755;43.608;1.236;2022-11-12T03:07:57;15.40;99.90
34768;DHT22;21755;43.608;1.236;2022-11-12T03:10:23;15.40;99.90
34768;DHT22;21755;43.608;1.236;2022-11-12T03:12:51;15.40;99.90
34768;DHT22;21755;43.608;1.236;2022-11-12T03:15:18;15.40;99.90
34768;DHT22;21755;43.608;1.236;2022-11-12T03:17:44;15.30;99.90
34768;DHT22;21755;43.608;1.236;2022-11-12T03:20:10;15.30;99.90
34768;DHT22;21755;43.608;1.236;2022-11-12T03:22:37;15.40;99.90
34768;DHT22;21755;43.608;1.236;2022-11-12T03:25:04;15.30;99.90
34768;DHT22;21755;43.608;1.236;2022-11-12T03:27:30;15.20;99.90
34768;DHT22;21755;43.608;1.236;2022-11-12T03:29:58;15.20;99.90
34768;DHT22;21755;43.608;1.236;2022-11-12T03:32:24;15.10;99.90
34768;DHT22;21755;43.608;1.236;2022-11-12T03:34:50;15.10;99.90
34768;DHT22;21755;43.608;1.236;2022-11-12T03:37:16;15.10;99.90
34768;DHT22;21755;43.608;1.236;2022-11-12T03:39:43;15.10;99.90
34768;DHT22;21755;43.608;1.236;2022-11-12T03:42:09;15.00;99.90
34768;DHT22;21755;43.608;1.236;2022-11-12T03:44:35;15.00;99.90
34768;DHT22;21755;43.608;1.236;2022-11-12T03:47:02;14.90;99.90
34768;DHT22;21755;43.608;1.236;2022-11-12T03:49:28;14.90;99.90
34768;DHT22;21755;43.608;1.236;2022-11-12T03:51:54;14.80;99.90
34768;DHT22;21755;43.608;1.236;2022-11-12T03:54:20;14.80;99.90
34768;DHT22;21755;43.608;1.236;2022-11-12T03:56:46;14.90;99.90
34768;DHT22;21755;43.608;1.236;2022-11-12T03:59:13;14.90;99.90
34768;DHT22;21755;43.608;1.236;2022-11-12T04:01:39;14.90;99.90
34768;DHT22;21755;43.608;1.236;2022-11-12T04:04:06;14.90;99.90
34768;DHT22;21755;43.608;1.236;2022-11-12T04:06:32;15.00;99.90
34768;DHT22;21755;43.608;1.236;2022-11-12T04:08:58;15.00;99.90
34768;DHT22;21755;43.608;1.236;2022-11-12T04:11:24;15.00;99.90
34768;DHT22;21755;43.608;1.236;2022-11-12T04:13:51;15.00;99.90
34768;DHT22;21755;43.608;1.236;2022-11-12T04:16:19;14.90;99.90
34768;DHT22;21755;43.608;1.236;2022-11-12T04:18:47;14.90;99.90
34768;DHT22;21755;43.608;1.236;2022-11-12T04:21:15;15.00;99.90
34768;DHT22;21755;43.608;1.236;2022-11-12T04:23:41;15.00;99.90
34768;DHT22;21755;43.608;1.236;2022-11-12T04:26:07;14.90;99.90
34768;DHT22;21755;43.608;1.236;2022-11-12T04:28:33;14.90;99.90
34768;DHT22;21755;43.608;1.236;2022-11-12T04:30:59;14.90;99.90
34768;DHT22;21755;43.608;1.236;2022-11-12T04:33:25;14.90;99.90
34768;DHT22;21755;43.608;1.236;2022-11-12T04:35:51;14.90;99.90
34768;DHT22;21755;43.608;1.236;2022-11-12T04:38:19;14.90;99.90
34768;DHT22;21755;43.608;1.236;2022-11-12T04:40:45;14.90;99.90
34768;DHT22;21755;43.608;1.236;2022-11-12T04:43:13;14.90;99.90
34768;DHT22;21755;43.608;1.236;2022-11-12T04:45:40;14.90;99.90
34768;DHT22;21755;43.608;1.236;2022-11-12T04:48:06;14.90;99.90
34768;DHT22;21755;43.608;1.236;2022-11-12T04:50:32;15.00;99.90
34768;DHT22;21755;43.608;1.236;2022-11-12T04:52:59;15.00;99.90
34768;DHT22;21755;43.608;1.236;2022-11-12T04:55:26;15.00;99.90
34768;DHT22;21755;43.608;1.236;2022-11-12T04:57:53;15.00;99.90
34768;DHT22;21755;43.608;1.236;2022-11-12T05:00:19;15.10;99.90
34768;DHT22;21755;43.608;1.236;2022-11-12T05:02:45;15.10;99.90
34768;DHT22;21755;43.608;1.236;2022-11-12T05:05:13;15.10;99.90
34768;DHT22;21755;43.608;1.236;2022-11-12T05:07:40;15.10;99.90
34768;DHT22;21755;43.608;1.236;2022-11-12T05:10:07;15.10;99.90
34768;DHT22;21755;43.608;1.236;2022-11-12T05:12:34;15.20;99.90
34768;DHT22;21755;43.608;1.236;2022-11-12T05:15:01;15.20;99.90
34768;DHT22;21755;43.608;1.236;2022-11-12T05:17:27;15.20;99.90
34768;DHT22;21755;43.608;1.236;2022-11-12T05:19:53;15.10;99.90
34768;DHT22;21755;43.608;1.236;2022-11-12T05:22:19;15.10;99.90
34768;DHT22;21755;43.608;1.236;2022-11-12T05:24:45;15.10;99.90
34768;DHT22;21755;43.608;1.236;2022-11-12T05:27:13;15.10;99.90
34768;DHT22;21755;43.608;1.236;2022-11-12T05:29:41;15.10;99.90
34768;DHT22;21755;43.608;1.236;2022-11-12T05:32:08;15.10;99.90
34768;DHT22;21755;43.608;1.236;2022-11-12T05:34:35;15.00;99.90
34768;DHT22;21755;43.608;1.236;2022-11-12T05:37:02;15.00;99.90
34768;DHT22;21755;43.608;1.236;2022-11-12T05:39:29;15.00;99.90
34768;DHT22;21755;43.608;1.236;2022-11-12T05:41:55;15.00;99.90
34768;DHT22;21755;43.608;1.236;2022-11-12T05:44:21;15.00;99.90
34768;DHT22;21755;43.608;1.236;2022-11-12T05:46:49;15.00;99.90
34768;DHT22;21755;43.608;1.236;2022-11-12T05:49:15;15.00;99.90
34768;DHT22;21755;43.608;1.236;2022-11-12T05:51:42;15.00;99.90
34768;DHT22;21755;43.608;1.236;2022-11-12T05:54:08;15.10;99.90
34768;DHT22;21755;43.608;1.236;2022-11-12T05:56:35;15.00;99.90
34768;DHT22;21755;43.608;1.236;2022-11-12T05:59:02;15.00;99.90
34768;DHT22;21755;43.608;1.236;2022-11-12T06:01:28;15.00;99.90
34768;DHT22;21755;43.608;1.236;2022-11-12T06:03:56;14.90;99.90
34768;DHT22;21755;43.608;1.236;2022-11-12T06:06:22;14.90;99.90
34768;DHT22;21755;43.608;1.236;2022-11-12T06:08:48;14.90;99.90
34768;DHT22;21755;43.608;1.236;2022-11-12T06:11:14;14.90;99.90
34768;DHT22;21755;43.608;1.236;2022-11-12T06:13:41;14.90;99.90
34768;DHT22;21755;43.608;1.236;2022-11-12T06:16:07;14.90;99.90
34768;DHT22;21755;43.608;1.236;2022-11-12T06:18:33;14.80;99.90
34768;DHT22;21755;43.608;1.236;2022-11-12T06:21:06;14.90;99.90
34768;DHT22;21755;43.608;1.236;2022-11-12T06:23:32;14.80;99.90
34768;DHT22;21755;43.608;1.236;2022-11-12T06:25:59;14.90;99.90
34768;DHT22;21755;43.608;1.236;2022-11-12T06:28:25;14.80;99.90
34768;DHT22;21755;43.608;1.236;2022-11-12T06:30:51;14.90;99.90
34768;DHT22;21755;43.608;1.236;2022-11-12T06:33:17;14.90;99.90
34768;DHT22;21755;43.608;1.236;2022-11-12T06:35:43;14.90;99.90
34768;DHT22;21755;43.608;1.236;2022-11-12T06:38:10;14.90;99.90
34768;DHT22;21755;43.608;1.236;2022-11-12T06:40:36;14.90;99.90
34768;DHT22;21755;43.608;1.236;2022-11-12T06:43:03;15.00;99.90
34768;DHT22;21755;43.608;1.236;2022-11-12T06:45:29;15.00;99.90
34768;DHT22;21755;43.608;1.236;2022-11-12T06:47:57;15.00;99.90
34768;DHT22;21755;43.608;1.236;2022-11-12T06:50:23;15.00;99.90
34768;DHT22;21755;43.608;1.236;2022-11-12T06:52:49;15.00;99.90
34768;DHT22;21755;43.608;1.236;2022-11-12T06:55:16;14.90;99.90
34768;DHT22;21755;43.608;1.236;2022-11-12T06:57:43;15.00;99.90
34768;DHT22;21755;43.608;1.236;2022-11-12T07:00:09;14.90;99.90
34768;DHT22;21755;43.608;1.236;2022-11-12T07:02:36;14.90;99.90
34768;DHT22;21755;43.608;1.236;2022-11-12T07:05:02;15.00;99.90
34768;DHT22;21755;43.608;1.236;2022-11-12T07:07:28;15.00;99.90
34768;DHT22;21755;43.608;1.236;2022-11-12T07:09:54;15.00;99.90
34768;DHT22;21755;43.608;1.236;2022-11-12T07:12:22;15.00;99.90
34768;DHT22;21755;43.608;1.236;2022-11-12T07:14:48;15.00;99.90
34768;DHT22;21755;43.608;1.236;2022-11-12T07:17:14;15.00;99.90
34768;DHT22;21755;43.608;1.236;2022-11-12T07:19:40;15.00;99.90
34768;DHT22;21755;43.608;1.236;2022-11-12T07:22:06;15.00;99.90
34768;DHT22;21755;43.608;1.236;2022-11-12T07:24:32;15.10;99.90
34768;DHT22;21755;43.608;1.236;2022-11-12T07:26:58;15.00;99.90
34768;DHT22;21755;43.608;1.236;2022-11-12T07:29:26;15.10;99.90
34768;DHT22;21755;43.608;1.236;2022-11-12T07:31:52;15.10;99.90
34768;DHT22;21755;43.608;1.236;2022-11-12T07:34:18;15.20;99.90
34768;DHT22;21755;43.608;1.236;2022-11-12T07:36:44;15.20;99.90
34768;DHT22;21755;43.608;1.236;2022-11-12T07:39:10;15.20;99.90
34768;DHT22;21755;43.608;1.236;2022-11-12T07:41:36;15.20;99.90
34768;DHT22;21755;43.608;1.236;2022-11-12T07:44:02;15.30;99.90
34768;DHT22;21755;43.608;1.236;2022-11-12T07:46:30;15.30;99.90
34768;DHT22;21755;43.608;1.236;2022-11-12T07:48:56;15.30;99.90
34768;DHT22;21755;43.608;1.236;2022-11-12T07:51:23;15.30;99.90
34768;DHT22;21755;43.608;1.236;2022-11-12T07:53:52;15.40;99.90
34768;DHT22;21755;43.608;1.236;2022-11-12T07:56:19;15.40;99.90
34768;DHT22;21755;43.608;1.236;2022-11-12T07:58:46;15.40;99.90
34768;DHT22;21755;43.608;1.236;2022-11-12T08:01:22;15.50;99.90
34768;DHT22;21755;43.608;1.236;2022-11-12T08:03:50;15.50;99.90
34768;DHT22;21755;43.608;1.236;2022-11-12T08:06:16;15.50;99.90
34768;DHT22;21755;43.608;1.236;2022-11-12T08:08:42;15.60;99.90
34768;DHT22;21755;43.608;1.236;2022-11-12T08:11:08;15.60;99.90
34768;DHT22;21755;43.608;1.236;2022-11-12T08:13:34;15.70;99.90
34768;DHT22;21755;43.608;1.236;2022-11-12T08:16:00;15.70;99.90
34768;DHT22;21755;43.608;1.236;2022-11-12T08:18:26;15.70;99.90
34768;DHT22;21755;43.608;1.236;2022-11-12T08:20:58;15.80;99.90
34768;DHT22;21755;43.608;1.236;2022-11-12T08:23:24;15.80;99.90
34768;DHT22;21755;43.608;1.236;2022-11-12T08:25:50;15.90;99.90
34768;DHT22;21755;43.608;1.236;2022-11-12T08:28:17;16.00;99.90
34768;DHT22;21755;43.608;1.236;2022-11-12T08:30:43;16.00;99.90
34768;DHT22;21755;43.608;1.236;2022-11-12T08:33:09;16.00;99.90
34768;DHT22;21755;43.608;1.236;2022-11-12T08:35:37;16.10;99.90
34768;DHT22;21755;43.608;1.236;2022-11-12T08:38:05;16.20;99.90
34768;DHT22;21755;43.608;1.236;2022-11-12T08:40:32;16.20;99.90
34768;DHT22;21755;43.608;1.236;2022-11-12T08:42:58;16.30;99.90
34768;DHT22;21755;43.608;1.236;2022-11-12T08:45:24;16.30;99.90
34768;DHT22;21755;43.608;1.236;2022-11-12T08:47:50;16.30;99.90
34768;DHT22;21755;43.608;1.236;2022-11-12T08:50:16;16.40;99.90
34768;DHT22;21755;43.608;1.236;2022-11-12T08:52:43;16.50;99.90
34768;DHT22;21755;43.608;1.236;2022-11-12T08:55:10;16.50;99.90
34768;DHT22;21755;43.608;1.236;2022-11-12T08:57:39;16.60;99.90
34768;DHT22;21755;43.608;1.236;2022-11-12T09:00:06;16.60;99.90
34768;DHT22;21755;43.608;1.236;2022-11-12T09:02:33;16.70;99.90
34768;DHT22;21755;43.608;1.236;2022-11-12T09:04:59;16.70;99.90
34768;DHT22;21755;43.608;1.236;2022-11-12T09:07:25;16.80;99.90
34768;DHT22;21755;43.608;1.236;2022-11-12T09:09:51;16.80;99.90
34768;DHT22;21755;43.608;1.236;2022-11-12T09:12:18;16.80;99.90
34768;DHT22;21755;43.608;1.236;2022-11-12T09:14:45;16.90;99.90
34768;DHT22;21755;43.608;1.236;2022-11-12T09:17:11;17.00;99.90
34768;DHT22;21755;43.608;1.236;2022-11-12T09:19:37;17.10;99.90
34768;DHT22;21755;43.608;1.236;2022-11-12T09:22:03;17.10;99.90
34768;DHT22;21755;43.608;1.236;2022-11-12T09:24:30;17.10;99.90
34768;DHT22;21755;43.608;1.236;2022-11-12T09:26:56;17.20;99.90
34768;DHT22;21755;43.608;1.236;2022-11-12T09:29:23;17.30;99.90
34768;DHT22;21755;43.608;1.236;2022-11-12T09:31:49;17.30;99.90
34768;DHT22;21755;43.608;1.236;2022-11-12T09:34:15;17.40;99.90
34768;DHT22;21755;43.608;1.236;2022-11-12T09:36:41;17.40;99.90
34768;DHT22;21755;43.608;1.236;2022-11-12T09:39:07;17.60;99.90
34768;DHT22;21755;43.608;1.236;2022-11-12T09:41:35;17.60;99.90
34768;DHT22;21755;43.608;1.236;2022-11-12T09:44:03;17.60;99.90
34768;DHT22;21755;43.608;1.236;2022-11-12T09:46:41;17.70;99.90
34768;DHT22;21755;43.608;1.236;2022-11-12T09:49:13;17.80;99.90
34768;DHT22;21755;43.608;1.236;2022-11-12T09:51:44;17.80;99.90
34768;DHT22;21755;43.608;1.236;2022-11-12T09:54:19;17.90;99.90
34768;DHT22;21755;43.608;1.236;2022-11-12T09:56:46;17.90;99.90
34768;DHT22;21755;43.608;1.236;2022-11-12T09:59:13;18.00;99.90
34768;DHT22;21755;43.608;1.236;2022-11-12T10:01:51;18.00;99.90
34768;DHT22;21755;43.608;1.236;2022-11-12T10:04:43;18.10;99.90
34768;DHT22;21755;43.608;1.236;2022-11-12T10:07:16;18.20;99.90
34768;DHT22;21755;43.608;1.236;2022-11-12T10:09:54;18.30;99.90
34768;DHT22;21755;43.608;1.236;2022-11-12T10:12:28;18.30;99.90
34768;DHT22;21755;43.608;1.236;2022-11-12T10:15:19;18.40;99.90
34768;DHT22;21755;43.608;1.236;2022-11-12T10:17:51;18.50;99.90
34768;DHT22;21755;43.608;1.236;2022-11-12T10:20:22;18.50;99.90
34768;DHT22;21755;43.608;1.236;2022-11-12T10:23:01;18.50;99.90
34768;DHT22;21755;43.608;1.236;2022-11-12T10:25:31;18.60;99.90
34768;DHT22;21755;43.608;1.236;2022-11-12T10:27:57;18.70;99.90
34768;DHT22;21755;43.608;1.236;2022-11-12T10:30:24;18.70;99.90
34768;DHT22;21755;43.608;1.236;2022-11-12T10:32:52;18.60;99.90
34768;DHT22;21755;43.608;1.236;2022-11-12T10:35:20;18.60;99.90
34768;DHT22;21755;43.608;1.236;2022-11-12T10:37:49;18.60;99.90
34768;DHT22;21755;43.608;1.236;2022-11-12T10:40:28;18.60;99.90
34768;DHT22;21755;43.608;1.236;2022-11-12T10:42:56;18.70;99.90
34768;DHT22;21755;43.608;1.236;2022-11-12T10:45:23;18.70;99.90
34768;DHT22;21755;43.608;1.236;2022-11-12T10:47:51;18.70;99.90
34768;DHT22;21755;43.608;1.236;2022-11-12T10:50:20;18.70;99.90
34768;DHT22;21755;43.608;1.236;2022-11-12T10:52:55;18.80;99.90
34768;DHT22;21755;43.608;1.236;2022-11-12T10:55:23;18.80;99.90
34768;DHT22;21755;43.608;1.236;2022-11-12T10:58:19;18.80;99.90
34768;DHT22;21755;43.608;1.236;2022-11-12T11:00:54;18.90;99.90
34768;DHT22;21755;43.608;1.236;2022-11-12T11:03:24;18.90;99.90
34768;DHT22;21755;43.608;1.236;2022-11-12T11:05:53;19.00;99.90
34768;DHT22;21755;43.608;1.236;2022-11-12T11:08:35;19.00;99.90
34768;DHT22;21755;43.608;1.236;2022-11-12T11:11:19;19.10;99.90
34768;DHT22;21755;43.608;1.236;2022-11-12T11:13:47;19.20;99.90
34768;DHT22;21755;43.608;1.236;2022-11-12T11:16:15;19.30;99.90
34768;DHT22;21755;43.608;1.236;2022-11-12T11:18:46;19.30;99.90
34768;DHT22;21755;43.608;1.236;2022-11-12T11:21:38;19.20;99.90
34768;DHT22;21755;43.608;1.236;2022-11-12T11:24:28;19.30;99.90
34768;DHT22;21755;43.608;1.236;2022-11-12T11:26:59;19.30;99.90
34768;DHT22;21755;43.608;1.236;2022-11-12T11:29:43;19.40;99.90
34768;DHT22;21755;43.608;1.236;2022-11-12T11:32:24;19.40;99.90
34768;DHT22;21755;43.608;1.236;2022-11-12T11:35:08;19.40;99.90
34768;DHT22;21755;43.608;1.236;2022-11-12T11:37:44;19.40;99.90
34768;DHT22;21755;43.608;1.236;2022-11-12T11:40:18;19.50;99.90
34768;DHT22;21755;43.608;1.236;2022-11-12T11:43:07;19.50;99.90
34768;DHT22;21755;43.608;1.236;2022-11-12T11:45:53;19.50;99.90
34768;DHT22;21755;43.608;1.236;2022-11-12T11:48:30;19.60;99.90
34768;DHT22;21755;43.608;1.236;2022-11-12T11:51:09;19.60;99.90
34768;DHT22;21755;43.608;1.236;2022-11-12T11:53:44;19.60;99.90
34768;DHT22;21755;43.608;1.236;2022-11-12T11:56:19;19.60;99.90
34768;DHT22;21755;43.608;1.236;2022-11-12T11:58:56;19.60;99.90
34768;DHT22;21755;43.608;1.236;2022-11-12T12:01:30;19.70;99.90
34768;DHT22;21755;43.608;1.236;2022-11-12T12:06:58;19.70;99.90
34768;DHT22;21755;43.608;1.236;2022-11-12T12:09:34;19.80;99.90
34768;DHT22;21755;43.608;1.236;2022-11-12T12:12:09;19.80;99.90
34768;DHT22;21755;43.608;1.236;2022-11-12T12:14:48;19.80;99.90
34768;DHT22;21755;43.608;1.236;2022-11-12T12:17:27;19.80;99.90
34768;DHT22;21755;43.608;1.236;2022-11-12T12:20:02;19.80;99.90
34768;DHT22;21755;43.608;1.236;2022-11-12T12:22:35;19.80;99.90
34768;DHT22;21755;43.608;1.236;2022-11-12T12:25:07;19.80;99.90
34768;DHT22;21755;43.608;1.236;2022-11-12T12:27:46;19.90;99.90
34768;DHT22;21755;43.608;1.236;2022-11-12T12:30:18;19.90;99.90
34768;DHT22;21755;43.608;1.236;2022-11-12T12:32:48;19.90;99.90
34768;DHT22;21755;43.608;1.236;2022-11-12T12:35:22;20.00;99.90
34768;DHT22;21755;43.608;1.236;2022-11-12T12:37:56;20.00;99.90
34768;DHT22;21755;43.608;1.236;2022-11-12T12:40:31;20.00;99.90
34768;DHT22;21755;43.608;1.236;2022-11-12T12:43:03;20.00;99.90
34768;DHT22;21755;43.608;1.236;2022-11-12T12:45:39;20.00;99.90
34768;DHT22;21755;43.608;1.236;2022-11-12T12:48:10;20.00;99.90
34768;DHT22;21755;43.608;1.236;2022-11-12T12:50:39;20.00;99.90
34768;DHT22;21755;43.608;1.236;2022-11-12T12:53:16;20.10;99.90
34768;DHT22;21755;43.608;1.236;2022-11-12T12:55:44;20.20;99.90
34768;DHT22;21755;43.608;1.236;2022-11-12T12:58:25;20.20;99.90
34768;DHT22;21755;43.608;1.236;2022-11-12T13:00:52;20.20;99.90
34768;DHT22;21755;43.608;1.236;2022-11-12T13:03:52;20.10;99.90
34768;DHT22;21755;43.608;1.236;2022-11-12T13:06:25;20.10;99.90
34768;DHT22;21755;43.608;1.236;2022-11-12T13:08:57;20.10;99.90
34768;DHT22;21755;43.608;1.236;2022-11-12T13:11:46;20.10;99.90
34768;DHT22;21755;43.608;1.236;2022-11-12T13:17:41;20.10;99.90
34768;DHT22;21755;43.608;1.236;2022-11-12T13:20:33;20.10;99.90
34768;DHT22;21755;43.608;1.236;2022-11-12T13:22:59;20.20;99.90
34768;DHT22;21755;43.608;1.236;2022-11-12T13:25:28;20.10;99.90
34768;DHT22;21755;43.608;1.236;2022-11-12T13:28:09;20.20;99.90
34768;DHT22;21755;43.608;1.236;2022-11-12T13:31:00;20.20;99.90
34768;DHT22;21755;43.608;1.236;2022-11-12T13:33:30;20.20;99.90
34768;DHT22;21755;43.608;1.236;2022-11-12T13:36:24;20.20;99.90
34768;DHT22;21755;43.608;1.236;2022-11-12T13:38:51;20.10;99.90
34768;DHT22;21755;43.608;1.236;2022-11-12T13:41:21;20.10;99.90
34768;DHT22;21755;43.608;1.236;2022-11-12T13:43:48;20.10;99.90
34768;DHT22;21755;43.608;1.236;2022-11-12T13:46:28;20.20;99.90
34768;DHT22;21755;43.608;1.236;2022-11-12T13:48:58;20.20;99.90
34768;DHT22;21755;43.608;1.236;2022-11-12T13:51:33;20.20;99.90
34768;DHT22;21755;43.608;1.236;2022-11-12T13:54:00;20.20;99.90
34768;DHT22;21755;43.608;1.236;2022-11-12T13:56:29;20.20;99.90
34768;DHT22;21755;43.608;1.236;2022-11-12T13:59:07;20.20;99.90
34768;DHT22;21755;43.608;1.236;2022-11-12T14:01:33;20.20;99.90
34768;DHT22;21755;43.608;1.236;2022-11-12T14:04:00;20.20;99.90
34768;DHT22;21755;43.608;1.236;2022-11-12T14:06:30;20.20;99.90
34768;DHT22;21755;43.608;1.236;2022-11-12T14:09:24;20.10;99.90
34768;DHT22;21755;43.608;1.236;2022-11-12T14:12:11;20.10;99.90
34768;DHT22;21755;43.608;1.236;2022-11-12T14:14:52;20.10;99.90
34768;DHT22;21755;43.608;1.236;2022-11-12T14:17:29;20.10;99.90
34768;DHT22;21755;43.608;1.236;2022-11-12T14:20:11;20.10;99.90
34768;DHT22;21755;43.608;1.236;2022-11-12T14:22:42;20.10;99.90
34768;DHT22;21755;43.608;1.236;2022-11-12T14:25:15;20.10;99.90
34768;DHT22;21755;43.608;1.236;2022-11-12T14:27:43;20.10;99.90
34768;DHT22;21755;43.608;1.236;2022-11-12T14:30:17;20.10;99.90
34768;DHT22;21755;43.608;1.236;2022-11-12T14:32:44;20.00;99.90
34768;DHT22;21755;43.608;1.236;2022-11-12T14:35:32;19.90;99.90
34768;DHT22;21755;43.608;1.236;2022-11-12T14:38:04;19.90;99.90
34768;DHT22;21755;43.608;1.236;2022-11-12T14:40:33;19.90;99.90
34768;DHT22;21755;43.608;1.236;2022-11-12T14:43:01;19.80;99.90
34768;DHT22;21755;43.608;1.236;2022-11-12T14:45:27;19.80;99.90
34768;DHT22;21755;43.608;1.236;2022-11-12T14:47:54;19.80;99.90
34768;DHT22;21755;43.608;1.236;2022-11-12T14:50:24;19.70;99.90
34768;DHT22;21755;43.608;1.236;2022-11-12T14:52:56;19.80;99.90
34768;DHT22;21755;43.608;1.236;2022-11-12T14:55:24;19.70;99.90
34768;DHT22;21755;43.608;1.236;2022-11-12T14:57:51;19.70;99.90
34768;DHT22;21755;43.608;1.236;2022-11-12T15:00:21;19.70;99.90
34768;DHT22;21755;43.608;1.236;2022-11-12T15:03:00;19.60;99.90
34768;DHT22;21755;43.608;1.236;2022-11-12T15:05:27;19.60;99.90
34768;DHT22;21755;43.608;1.236;2022-11-12T15:07:55;19.50;99.90
34768;DHT22;21755;43.608;1.236;2022-11-12T15:10:30;19.50;99.90
34768;DHT22;21755;43.608;1.236;2022-11-12T15:13:04;19.40;99.90
34768;DHT22;21755;43.608;1.236;2022-11-12T15:15:35;19.40;99.90
34768;DHT22;21755;43.608;1.236;2022-11-12T15:18:04;19.40;99.90
34768;DHT22;21755;43.608;1.236;2022-11-12T15:20:31;19.40;99.90
34768;DHT22;21755;43.608;1.236;2022-11-12T15:22:57;19.30;99.90
34768;DHT22;21755;43.608;1.236;2022-11-12T15:25:25;19.30;99.90
34768;DHT22;21755;43.608;1.236;2022-11-12T15:27:51;19.20;99.90
34768;DHT22;21755;43.608;1.236;2022-11-12T15:30:20;19.20;99.90
34768;DHT22;21755;43.608;1.236;2022-11-12T15:32:48;19.10;99.90
34768;DHT22;21755;43.608;1.236;2022-11-12T15:35:35;19.10;99.90
34768;DHT22;21755;43.608;1.236;2022-11-12T15:38:04;19.00;99.90
34768;DHT22;21755;43.608;1.236;2022-11-12T15:40:31;19.00;99.90
34768;DHT22;21755;43.608;1.236;2022-11-12T15:42:58;18.90;99.90
34768;DHT22;21755;43.608;1.236;2022-11-12T15:45:25;18.80;99.90
34768;DHT22;21755;43.608;1.236;2022-11-12T15:47:53;18.80;99.90
34768;DHT22;21755;43.608;1.236;2022-11-12T15:50:20;18.70;99.90